Time;durP1;ratioP1;P1;durP2;ratioP2;P2;SDS_P1;SDS_P2;PMS_P1;PMS_P2;Temp;Humidity;BMP_temperature;BMP_pressure;BME280_temperature;BME280_humidity;BME280_pressure;Samples;Min_cycle;Max_cycle;Signal;HPM_P1;HPM_P2
2023/11/29 13:32:35;;;;;;;5.93;4.10;;;9.90;1.00;;;;;;4969018;23;20093;-75
2023/11/29 13:35:01;;;;;;;9.90;4.18;;;9.90;1.00;;;;;;4935333;29;20066;-75
2023/11/29 13:37:27;;;;;;;17.70;4.82;;;9.90;1.00;;;;;;4934671;29;20035;-75
2023/11/29 13:39:53;;;;;;;10.23;4.90;;;9.90;1.00;;;;;;4934466;29;20031;-75
2023/11/29 13:42:18;;;;;;;5.95;4.63;;;10.00;1.00;;;;;;4912201;29;20024;-75
2023/11/29 13:44:44;;;;;;;5.43;4.32;;;9.90;1.00;;;;;;4935197;29;20080;-75
2023/11/29 13:47:10;;;;;;;5.70;5.00;;;9.90;1.00;;;;;;4934602;29;20023;-75
2023/11/29 13:49:36;;;;;;;25.23;6.60;;;9.90;1.00;;;;;;4917930;29;20054;-75
2023/11/29 13:52:02;;;;;;;6.38;5.30;;;10.00;1.00;;;;;;4934506;29;20115;-75
2023/11/29 13:54:28;;;;;;;16.17;5.95;;;10.10;1.00;;;;;;4934802;29;20163;-75
2023/11/29 13:56:54;;;;;;;9.50;5.22;;;10.10;1.00;;;;;;4934488;29;20114;-75
2023/11/29 13:59:19;;;;;;;11.13;5.22;;;10.00;1.00;;;;;;4934999;29;20509;-75
2023/11/29 14:01:45;;;;;;;6.80;5.72;;;10.00;1.00;;;;;;4934417;29;20028;-75
2023/11/29 14:04:11;;;;;;;8.38;4.97;;;9.90;1.00;;;;;;4931101;29;20401;-75
2023/11/29 14:06:37;;;;;;;7.28;5.88;;;9.90;1.00;;;;;;4917272;29;20031;-75
2023/11/29 14:09:03;;;;;;;11.13;5.63;;;9.80;1.00;;;;;;4917549;29;20111;-75
2023/11/29 14:11:29;;;;;;;8.07;5.18;;;9.80;1.00;;;;;;4934359;29;20549;-75
2023/11/29 14:13:55;;;;;;;5.80;5.32;;;9.70;9.10;;;;;;4935515;29;20032;-75
2023/11/29 14:16:21;;;;;;;7.78;4.97;;;9.70;1.00;;;;;;4934303;29;20020;-75
2023/11/29 14:18:46;;;;;;;7.50;5.70;;;9.70;1.00;;;;;;4934559;29;20512;-75
2023/11/29 14:21:12;;;;;;;7.65;6.55;;;9.60;26.90;;;;;;4933114;29;20019;-75
2023/11/29 14:23:38;;;;;;;8.50;6.88;;;9.60;17.00;;;;;;4934375;29;20020;-75
2023/11/29 14:26:04;;;;;;;12.55;6.95;;;9.60;39.70;;;;;;4934031;29;20157;-75
2023/11/29 14:28:34;;;;;;;13.93;8.15;;;9.50;30.80;;;;;;4934411;29;20127;-75
2023/11/29 14:31:01;;;;;;;13.43;8.60;;;9.50;1.00;;;;;;4934047;29;20023;-75
2023/11/29 14:33:26;;;;;;;9.90;8.02;;;9.50;1.00;;;;;;4933848;29;20062;-75
2023/11/29 14:35:52;;;;;;;37.83;9.43;;;9.50;1.00;;;;;;4932757;29;20031;-75
2023/11/29 14:38:18;;;;;;;23.08;8.40;;;9.50;4.70;;;;;;4934321;29;20033;-75
2023/11/29 14:40:43;;;;;;;9.98;7.72;;;9.40;31.10;;;;;;4933933;29;20028;-75
2023/11/29 14:43:09;;;;;;;13.77;8.70;;;9.40;40.20;;;;;;4934201;29;20087;-75
2023/11/29 14:45:35;;;;;;;12.90;8.48;;;9.40;21.10;;;;;;4934063;29;20059;-75
2023/11/29 14:48:00;;;;;;;13.85;8.82;;;9.30;88.70;;;;;;4924125;29;20512;-75
2023/11/29 14:50:26;;;;;;;18.98;10.27;;;9.30;55.90;;;;;;4917174;29;20036;-75
2023/11/29 14:52:51;;;;;;;20.30;11.82;;;9.30;56.50;;;;;;4933590;29;20110;-75
2023/11/29 14:55:19;;;;;;;28.23;13.13;;;9.20;80.00;;;;;;4934416;29;20028;-73
2023/11/29 14:57:45;;;;;;;32.50;15.68;;;9.30;99.90;;;;;;4934128;29;20042;-74
2023/11/29 15:00:11;;;;;;;30.45;15.57;;;9.10;99.90;;;;;;4934300;29;20397;-73
2023/11/29 15:02:37;;;;;;;19.38;13.68;;;9.00;99.90;;;;;;4935338;29;20087;-72
2023/11/29 15:05:03;;;;;;;19.30;12.18;;;8.90;99.90;;;;;;4934295;29;20075;-73
2023/11/29 15:07:28;;;;;;;18.95;9.98;;;8.70;99.90;;;;;;4933604;29;20054;-73
2023/11/29 15:09:55;;;;;;;22.60;11.30;;;8.60;1.00;;;;;;4916695;29;20036;-72
2023/11/29 15:12:21;;;;;;;27.55;12.55;;;8.50;1.00;;;;;;4933460;29;20067;-74
2023/11/29 15:14:46;;;;;;;20.13;11.05;;;8.50;1.00;;;;;;4933947;29;20059;-73
2023/11/29 15:17:12;;;;;;;17.88;9.40;;;8.40;39.50;;;;;;4933497;29;20055;-73
2023/11/29 15:19:37;;;;;;;15.45;8.55;;;8.30;99.90;;;;;;4916702;29;20429;-73
2023/11/29 15:22:06;;;;;;;15.07;8.65;;;8.20;99.90;;;;;;4933372;29;20038;-73
2023/11/29 15:24:32;;;;;;;12.82;8.90;;;8.10;99.90;;;;;;4933748;29;20028;-73
2023/11/29 15:26:57;;;;;;;20.30;9.00;;;8.00;99.90;;;;;;4936326;29;20374;-73
2023/11/29 15:29:23;;;;;;;20.65;9.77;;;8.00;99.90;;;;;;4920545;29;20056;-73
2023/11/29 15:31:49;;;;;;;20.52;10.90;;;8.00;99.90;;;;;;4938924;29;20039;-72
2023/11/29 15:34:14;;;;;;;19.33;9.85;;;8.00;99.90;;;;;;4956754;29;20066;-72
2023/11/29 15:36:40;;;;;;;23.38;8.45;;;7.90;99.90;;;;;;4956210;29;20034;-73
2023/11/29 15:39:07;;;;;;;20.63;10.18;;;7.90;99.90;;;;;;4953648;29;20381;-73
2023/11/29 15:41:37;;;;;;;27.67;10.00;;;7.90;99.90;;;;;;4956128;29;20028;-73
2023/11/29 15:44:02;;;;;;;25.55;9.98;;;7.80;99.90;;;;;;4939218;29;20027;-73
2023/11/29 15:46:28;;;;;;;19.20;9.48;;;7.80;99.90;;;;;;4956023;29;20493;-73
2023/11/29 15:48:54;;;;;;;24.85;9.93;;;7.70;99.90;;;;;;4956407;29;20105;-73
2023/11/29 15:51:19;;;;;;;20.90;9.02;;;7.70;99.90;;;;;;4956130;29;20027;-73
2023/11/29 15:53:45;;;;;;;32.55;10.23;;;7.70;99.90;;;;;;4956144;29;20529;-73
2023/11/29 15:56:11;;;;;;;20.83;10.35;;;7.60;99.90;;;;;;4955770;29;20026;-73
2023/11/29 15:58:39;;;;;;;50.10;12.82;;;7.60;99.90;;;;;;4956424;29;20023;-73
2023/11/29 16:01:05;;;;;;;32.65;10.88;;;7.60;99.90;;;;;;4938360;29;20023;-73
2023/11/29 16:03:31;;;;;;;28.50;9.98;;;7.50;99.90;;;;;;4955962;29;20038;-73
2023/11/29 16:05:58;;;;;;;38.40;10.05;;;7.50;99.90;;;;;;4955795;29;20033;-73
2023/11/29 16:08:23;;;;;;;37.67;10.43;;;7.50;99.90;;;;;;4956017;29;20020;-73
2023/11/29 16:10:49;;;;;;;23.20;9.27;;;7.40;99.90;;;;;;4953932;29;20102;-73
2023/11/29 16:13:15;;;;;;;16.20;8.23;;;7.40;99.90;;;;;;4938416;29;20500;-72
2023/11/29 16:15:40;;;;;;;20.55;9.55;;;7.40;99.90;;;;;;4955456;29;20106;-73
2023/11/29 16:18:06;;;;;;;33.55;9.25;;;7.30;99.90;;;;;;4955874;29;20030;-73
2023/11/29 16:20:36;;;;;;;20.10;9.50;;;7.20;99.90;;;;;;4955831;29;20449;-73
2023/11/29 16:23:02;;;;;;;31.10;9.50;;;7.20;99.90;;;;;;4938136;29;20023;-73
2023/11/29 16:25:28;;;;;;;23.08;9.95;;;7.10;99.90;;;;;;4955699;29;20019;-73
2023/11/29 16:27:54;;;;;;;15.15;8.40;;;7.10;99.90;;;;;;4938270;29;20031;-73
2023/11/29 16:30:19;;;;;;;20.50;8.80;;;7.10;99.90;;;;;;4939637;29;20031;-73
2023/11/29 16:32:45;;;;;;;19.77;9.73;;;7.00;99.90;;;;;;4956102;28;20508;-73
2023/11/29 16:35:11;;;;;;;23.52;9.40;;;7.00;99.90;;;;;;4956859;29;20024;-72
2023/11/29 16:37:37;;;;;;;30.33;11.52;;;7.00;99.90;;;;;;4956135;28;20545;-72
2023/11/29 16:40:03;;;;;;;17.83;11.23;;;6.90;99.90;;;;;;4955336;28;20027;-73
2023/11/29 16:42:30;;;;;;;12.23;9.18;;;6.90;99.90;;;;;;4938817;29;20023;-72
2023/11/29 16:44:56;;;;;;;15.80;11.23;;;6.80;99.90;;;;;;4955765;29;20050;-72
2023/11/29 16:47:22;;;;;;;17.17;10.77;;;6.80;99.90;;;;;;4953170;29;20130;-73
2023/11/29 16:49:48;;;;;;;15.65;10.05;;;6.70;99.90;;;;;;4953460;29;20229;-73
2023/11/29 16:52:13;;;;;;;12.13;9.10;;;6.70;99.90;;;;;;4952991;29;20035;-75
2023/11/29 16:54:39;;;;;;;37.97;12.35;;;6.60;99.90;;;;;;4953197;28;20037;-75
2023/11/29 16:57:08;;;;;;;21.10;10.18;;;6.50;99.90;;;;;;4953714;28;20054;-75
2023/11/29 16:59:33;;;;;;;21.65;10.77;;;6.60;99.90;;;;;;4954263;28;20027;-75
2023/11/29 17:01:59;;;;;;;31.48;13.40;;;6.60;99.90;;;;;;4954674;29;20477;-75
2023/11/29 17:04:26;;;;;;;22.15;12.88;;;6.70;99.90;;;;;;4955176;29;20027;-75
2023/11/29 17:06:52;;;;;;;18.20;10.90;;;6.70;99.90;;;;;;4954679;29;20047;-75
2023/11/29 17:09:18;;;;;;;16.30;9.82;;;6.70;99.90;;;;;;4954801;28;20082;-75
2023/11/29 17:11:45;;;;;;;20.23;10.20;;;6.70;99.90;;;;;;4953750;29;20058;-75
2023/11/29 17:14:12;;;;;;;22.35;10.43;;;6.70;99.90;;;;;;4954887;28;20027;-75
2023/11/29 17:16:37;;;;;;;24.63;10.75;;;6.70;99.90;;;;;;4954535;29;20469;-75
2023/11/29 17:19:04;;;;;;;21.52;9.50;;;6.70;99.90;;;;;;4954889;29;20030;-75
2023/11/29 17:21:32;;;;;;;18.33;9.05;;;6.70;99.90;;;;;;4954308;28;20027;-75
2023/11/29 17:24:03;;;;;;;15.63;9.07;;;6.70;99.90;;;;;;4937536;29;20085;-75
2023/11/29 17:26:33;;;;;;;17.17;10.75;;;6.80;99.90;;;;;;4953993;29;20493;-75
2023/11/29 17:28:58;;;;;;;22.25;10.30;;;6.70;99.90;;;;;;4954768;29;20028;-74
2023/11/29 17:31:25;;;;;;;17.27;11.40;;;6.70;99.90;;;;;;4954526;28;20030;-75
2023/11/29 17:33:52;;;;;;;18.10;10.00;;;6.70;99.90;;;;;;4954096;28;20039;-75
2023/11/29 17:36:17;;;;;;;27.20;11.57;;;6.70;99.90;;;;;;4954000;29;20027;-75
2023/11/29 17:38:43;;;;;;;14.52;9.95;;;6.70;99.90;;;;;;4954283;29;20025;-75
2023/11/29 17:41:12;;;;;;;26.10;10.32;;;6.60;99.90;;;;;;4950335;28;20015;-75
2023/11/29 17:43:38;;;;;;;21.85;10.52;;;6.60;99.90;;;;;;4954185;28;20031;-75
2023/11/29 17:46:04;;;;;;;15.38;9.98;;;6.60;99.90;;;;;;4951999;28;20031;-75
2023/11/29 17:48:30;;;;;;;18.83;10.32;;;6.50;99.90;;;;;;4953838;28;20053;-75
2023/11/29 17:50:56;;;;;;;15.43;9.38;;;6.50;99.90;;;;;;4952768;28;20027;-75
2023/11/29 17:53:21;;;;;;;13.52;9.40;;;6.40;99.90;;;;;;4953902;29;20477;-75
2023/11/29 17:55:47;;;;;;;12.38;8.30;;;6.50;99.90;;;;;;4953648;29;20090;-75
2023/11/29 17:58:12;;;;;;;12.38;9.25;;;6.40;99.90;;;;;;4935327;29;20405;-75
2023/11/29 18:00:41;;;;;;;15.48;9.73;;;6.50;99.90;;;;;;4952349;28;20626;-75
2023/11/29 18:03:07;;;;;;;11.77;8.48;;;6.40;99.90;;;;;;4935608;29;20078;-75
2023/11/29 18:05:32;;;;;;;11.95;8.45;;;6.40;99.90;;;;;;4952115;29;20027;-75
2023/11/29 18:07:58;;;;;;;15.20;9.13;;;6.40;99.90;;;;;;4953213;29;20027;-75
2023/11/29 18:10:24;;;;;;;19.73;8.68;;;6.40;99.90;;;;;;4951758;29;20085;-75
2023/11/29 18:12:49;;;;;;;14.55;8.80;;;6.40;99.90;;;;;;4953959;28;20031;-75
2023/11/29 18:15:15;;;;;;;28.92;8.18;;;6.40;99.90;;;;;;4953231;29;20023;-75
2023/11/29 18:17:41;;;;;;;13.10;7.38;;;6.50;99.90;;;;;;4934133;29;20042;-75
2023/11/29 18:20:07;;;;;;;8.95;7.60;;;6.50;99.90;;;;;;4935988;29;20026;-75
2023/11/29 18:22:33;;;;;;;12.18;8.43;;;6.50;99.90;;;;;;4953174;29;20024;-75
2023/11/29 18:24:59;;;;;;;8.38;7.07;;;6.60;99.90;;;;;;4953308;28;20032;-75
2023/11/29 18:27:24;;;;;;;16.02;7.47;;;6.60;99.90;;;;;;4953316;29;20035;-75
2023/11/29 18:29:50;;;;;;;13.23;8.48;;;6.70;99.90;;;;;;4953083;28;20035;-75
2023/11/29 18:32:17;;;;;;;11.32;8.07;;;6.70;99.90;;;;;;4951498;29;20058;-74
2023/11/29 18:34:43;;;;;;;13.88;9.07;;;6.70;99.90;;;;;;4952846;29;20059;-74
2023/11/29 18:37:09;;;;;;;17.15;9.65;;;6.70;99.90;;;;;;4950392;29;20059;-75
2023/11/29 18:39:35;;;;;;;11.05;8.07;;;6.80;99.90;;;;;;4949297;28;20031;-75
2023/11/29 18:42:01;;;;;;;11.88;8.32;;;6.80;99.90;;;;;;4948505;29;20374;-75
2023/11/29 18:44:27;;;;;;;14.85;8.68;;;6.80;99.90;;;;;;4949799;29;20054;-75
2023/11/29 18:46:52;;;;;;;10.32;7.55;;;6.80;99.90;;;;;;4948498;29;20031;-75
2023/11/29 18:49:19;;;;;;;11.48;8.00;;;6.80;99.90;;;;;;4949027;28;20560;-75
2023/11/29 18:51:45;;;;;;;13.13;7.70;;;6.90;99.90;;;;;;4949172;29;20031;-75
2023/11/29 18:54:11;;;;;;;10.05;7.72;;;6.90;99.90;;;;;;4948820;29;20031;-75
2023/11/29 18:56:37;;;;;;;9.85;7.53;;;6.90;99.90;;;;;;4948686;29;20094;-75
2023/11/29 18:59:03;;;;;;;11.15;7.88;;;7.00;99.90;;;;;;4949380;29;20602;-75
2023/11/29 19:01:29;;;;;;;18.00;9.38;;;7.00;99.90;;;;;;4950598;28;20054;-75
2023/11/29 19:03:55;;;;;;;14.55;7.72;;;7.00;99.90;;;;;;4953357;29;20031;-75
2023/11/29 19:06:20;;;;;;;13.50;6.47;;;7.00;99.90;;;;;;4952092;29;20043;-75
2023/11/29 19:08:46;;;;;;;10.20;8.43;;;7.00;99.90;;;;;;4952850;29;20023;-75
2023/11/29 19:11:12;;;;;;;11.38;8.77;;;7.00;99.90;;;;;;4949638;29;20496;-75
2023/11/29 19:13:38;;;;;;;12.82;8.18;;;7.00;99.90;;;;;;4952586;29;20067;-75
2023/11/29 19:16:04;;;;;;;13.73;7.38;;;7.10;99.90;;;;;;4935680;29;20031;-75
2023/11/29 19:18:30;;;;;;;11.48;7.00;;;7.00;99.90;;;;;;4952567;29;20078;-75
2023/11/29 19:20:55;;;;;;;11.45;7.30;;;7.00;99.90;;;;;;4951688;29;20039;-75
2023/11/29 19:23:21;;;;;;;6.88;6.28;;;7.10;99.90;;;;;;4936058;29;20066;-75
2023/11/29 19:25:48;;;;;;;19.08;7.07;;;7.00;99.90;;;;;;4952290;29;20119;-75
2023/11/29 19:28:13;;;;;;;10.52;6.80;;;7.10;99.90;;;;;;4952324;29;20540;-75
2023/11/29 19:30:39;;;;;;;8.20;6.40;;;7.10;99.90;;;;;;4952677;29;20114;-75
2023/11/29 19:33:06;;;;;;;10.18;7.35;;;7.10;99.90;;;;;;4951664;28;20212;-75
2023/11/29 19:35:34;;;;;;;12.25;9.18;;;7.10;99.90;;;;;;4935983;28;20043;-75
2023/11/29 19:38:00;;;;;;;10.50;7.25;;;7.10;99.90;;;;;;4956311;28;20027;-75
2023/11/29 19:40:26;;;;;;;10.23;7.55;;;7.20;99.90;;;;;;4952001;28;20646;-75
2023/11/29 19:42:51;;;;;;;10.52;7.85;;;7.20;99.90;;;;;;4952495;29;20054;-75
2023/11/29 19:45:17;;;;;;;9.57;6.88;;;7.20;99.90;;;;;;4931953;29;20082;-75
2023/11/29 19:47:45;;;;;;;7.70;6.68;;;7.20;99.90;;;;;;4951853;28;20449;-75
2023/11/29 19:50:11;;;;;;;15.13;6.75;;;7.20;99.90;;;;;;4952616;28;20035;-75
2023/11/29 19:52:37;;;;;;;10.07;6.60;;;7.20;99.90;;;;;;4951581;29;20042;-75
2023/11/29 19:55:02;;;;;;;8.18;6.93;;;7.20;99.90;;;;;;4949240;29;20110;-75
2023/11/29 19:57:28;;;;;;;9.07;6.72;;;7.20;99.90;;;;;;4947444;28;20026;-75
2023/11/29 19:59:54;;;;;;;8.02;6.05;;;7.20;99.90;;;;;;4930510;29;20508;-75
2023/11/29 20:02:20;;;;;;;7.28;6.53;;;7.20;99.90;;;;;;4949005;29;20019;-74
2023/11/29 20:04:46;;;;;;;11.93;7.50;;;7.20;99.90;;;;;;4931208;29;20038;-75
2023/11/29 20:07:12;;;;;;;10.75;8.07;;;7.30;99.90;;;;;;4947616;29;20473;-74
2023/11/29 20:09:37;;;;;;;6.97;6.28;;;7.20;99.90;;;;;;4955283;28;20027;-75
2023/11/29 20:12:03;;;;;;;7.70;6.85;;;7.30;99.90;;;;;;4950728;28;20023;-75
2023/11/29 20:14:29;;;;;;;8.38;6.25;;;7.20;99.90;;;;;;4952080;28;20507;-75
2023/11/29 20:16:55;;;;;;;6.63;6.00;;;7.30;99.90;;;;;;4950916;28;20425;-75
2023/11/29 20:19:20;;;;;;;7.47;6.40;;;7.30;99.90;;;;;;4951162;28;20489;-75
2023/11/29 20:21:46;;;;;;;6.10;5.50;;;7.30;99.90;;;;;;4930258;29;20089;-75
2023/11/29 20:24:12;;;;;;;7.68;5.85;;;7.40;99.90;;;;;;4949479;28;20031;-75
2023/11/29 20:26:37;;;;;;;8.32;5.65;;;7.40;99.90;;;;;;4949639;29;20489;-75
2023/11/29 20:29:03;;;;;;;7.70;6.07;;;7.40;99.90;;;;;;4949502;28;20032;-75
2023/11/29 20:31:29;;;;;;;7.00;6.30;;;7.40;99.90;;;;;;4948856;28;20031;-75
2023/11/29 20:33:57;;;;;;;5.97;5.30;;;7.40;99.90;;;;;;4950161;29;20390;-75
2023/11/29 20:36:23;;;;;;;8.07;5.85;;;7.40;99.90;;;;;;4950234;28;20485;-75
2023/11/29 20:38:51;;;;;;;7.30;6.20;;;7.40;99.90;;;;;;4951092;29;20023;-75
2023/11/29 20:41:21;;;;;;;6.45;5.78;;;7.40;99.90;;;;;;4933472;29;20343;-75
2023/11/29 20:43:46;;;;;;;6.45;5.75;;;7.50;99.90;;;;;;4951015;29;20031;-75
2023/11/29 20:46:12;;;;;;;7.10;5.75;;;7.50;99.90;;;;;;4950822;29;20035;-75
2023/11/29 20:48:38;;;;;;;11.10;6.32;;;7.50;99.90;;;;;;4934058;29;20090;-75
2023/11/29 20:51:04;;;;;;;6.85;6.22;;;7.50;1.00;;;;;;4950448;29;20057;-75
2023/11/29 20:53:29;;;;;;;7.47;6.10;;;7.50;1.00;;;;;;4951368;28;20055;-75
2023/11/29 20:55:55;;;;;;;6.15;5.57;;;7.50;1.00;;;;;;4950428;29;20038;-75
2023/11/29 20:58:21;;;;;;;7.05;5.95;;;7.40;1.00;;;;;;4950346;29;20547;-75
2023/11/29 21:00:46;;;;;;;11.73;6.55;;;7.40;1.00;;;;;;4951124;28;20432;-75
2023/11/29 21:03:12;;;;;;;7.50;5.97;;;7.40;1.00;;;;;;4950232;29;20062;-75
2023/11/29 21:05:38;;;;;;;5.75;5.22;;;7.40;1.00;;;;;;4950868;28;20024;-75
2023/11/29 21:08:04;;;;;;;6.95;6.03;;;7.40;1.00;;;;;;4933397;29;20512;-75
2023/11/29 21:10:33;;;;;;;8.23;6.00;;;7.40;1.00;;;;;;4950022;29;20027;-75
2023/11/29 21:12:58;;;;;;;6.75;6.15;;;7.40;1.00;;;;;;4932778;29;20429;-75
2023/11/29 21:15:24;;;;;;;6.68;6.07;;;7.40;1.00;;;;;;4950776;29;20031;-74
2023/11/29 21:17:52;;;;;;;7.68;6.28;;;7.40;1.00;;;;;;4950331;29;20035;-75
2023/11/29 21:20:18;;;;;;;7.47;5.10;;;7.40;1.00;;;;;;4950691;29;20026;-74
2023/11/29 21:22:44;;;;;;;7.07;6.38;;;7.40;1.00;;;;;;4951641;28;20114;-75
2023/11/29 21:25:10;;;;;;;10.43;6.43;;;7.40;1.00;;;;;;4950382;29;20506;-75
2023/11/29 21:27:36;;;;;;;9.65;6.90;;;7.40;1.00;;;;;;4949772;29;20066;-75
2023/11/29 21:30:02;;;;;;;6.95;6.28;;;7.40;1.00;;;;;;4949943;29;20047;-75
2023/11/29 21:32:28;;;;;;;6.63;6.00;;;7.40;1.00;;;;;;4932756;29;20429;-75
2023/11/29 21:34:53;;;;;;;6.50;6.00;;;7.40;1.00;;;;;;4932440;29;20038;-75
2023/11/29 21:37:19;;;;;;;5.60;5.10;;;7.40;1.00;;;;;;4951381;28;20532;-75
2023/11/29 21:39:45;;;;;;;5.85;5.35;;;7.50;1.00;;;;;;4949676;29;20046;-75
2023/11/29 21:42:13;;;;;;;6.38;5.78;;;7.50;1.00;;;;;;4949233;29;20051;-75
2023/11/29 21:44:40;;;;;;;6.13;5.68;;;7.50;1.00;;;;;;4932559;29;20031;-75
2023/11/29 21:47:06;;;;;;;6.40;5.80;;;7.60;1.00;;;;;;4949335;29;20122;-75
2023/11/29 21:49:31;;;;;;;7.60;6.38;;;7.60;1.00;;;;;;4949828;28;20114;-75
2023/11/29 21:52:00;;;;;;;7.45;6.53;;;7.60;1.00;;;;;;4950046;29;20106;-75
2023/11/29 21:54:26;;;;;;;5.72;5.22;;;7.60;1.00;;;;;;4949414;29;20161;-75
2023/11/29 21:56:52;;;;;;;6.70;5.57;;;7.60;1.00;;;;;;4949616;29;20500;-75
2023/11/29 21:59:17;;;;;;;6.65;5.85;;;7.60;1.00;;;;;;4949632;29;20357;-75
2023/11/29 22:01:50;;;;;;;5.20;4.70;;;7.50;1.00;;;;;;4950633;28;20182;-75
2023/11/29 22:04:15;;;;;;;7.18;5.53;;;7.50;1.00;;;;;;4949908;29;20508;-75
2023/11/29 22:06:41;;;;;;;7.03;6.32;;;7.50;1.00;;;;;;4949581;29;20118;-75
2023/11/29 22:09:06;;;;;;;6.40;5.80;;;7.50;1.00;;;;;;4949408;29;20496;-75
2023/11/29 22:11:34;;;;;;;5.57;5.07;;;7.50;1.00;;;;;;4932214;29;20058;-75
2023/11/29 22:14:00;;;;;;;6.00;5.50;;;7.50;1.00;;;;;;4931952;29;20035;-75
2023/11/29 22:16:25;;;;;;;5.95;5.43;;;7.50;1.00;;;;;;4931148;29;20034;-75
2023/11/29 22:18:51;;;;;;;9.10;5.68;;;7.60;1.00;;;;;;4932629;29;20027;-75
2023/11/29 22:21:22;;;;;;;5.60;5.10;;;7.60;1.00;;;;;;4931486;29;20397;-75
2023/11/29 22:23:47;;;;;;;7.07;5.20;;;7.50;1.00;;;;;;4947551;29;20078;-76
2023/11/29 22:26:13;;;;;;;6.60;5.55;;;7.50;1.00;;;;;;4949628;29;20031;-76
2023/11/29 22:28:39;;;;;;;10.43;6.43;;;7.50;1.00;;;;;;4948954;29;20045;-75
2023/11/29 22:31:08;;;;;;;7.05;5.32;;;7.50;1.00;;;;;;4948936;29;20433;-76
2023/11/29 22:33:37;;;;;;;8.20;5.75;;;7.50;1.00;;;;;;4949599;28;20437;-75
2023/11/29 22:36:03;;;;;;;6.13;5.53;;;7.50;1.00;;;;;;4945273;28;20115;-75
2023/11/29 22:38:30;;;;;;;6.95;6.25;;;7.50;1.00;;;;;;4946576;29;20400;-75
2023/11/29 22:40:56;;;;;;;6.82;6.22;;;7.50;1.00;;;;;;4948622;29;20501;-75
2023/11/29 22:43:22;;;;;;;6.40;5.90;;;7.50;1.00;;;;;;4948808;29;20034;-75
2023/11/29 22:45:47;;;;;;;7.35;6.00;;;7.50;1.00;;;;;;4948841;29;20388;-76
2023/11/29 22:48:13;;;;;;;7.43;6.13;;;7.50;1.00;;;;;;4947572;29;20042;-76
2023/11/29 22:50:39;;;;;;;8.02;5.88;;;7.50;1.00;;;;;;4946888;28;20047;-75
2023/11/29 22:53:04;;;;;;;7.03;6.18;;;7.50;1.00;;;;;;4947470;29;20196;-75
2023/11/29 22:55:30;;;;;;;7.18;5.90;;;7.50;1.00;;;;;;4929636;29;20066;-75
2023/11/29 22:57:56;;;;;;;6.63;5.97;;;7.50;1.00;;;;;;4947527;29;20035;-76
2023/11/29 23:00:21;;;;;;;6.30;5.65;;;7.50;1.00;;;;;;4947092;28;20424;-76
2023/11/29 23:02:47;;;;;;;5.93;5.43;;;7.50;1.00;;;;;;4946900;28;20437;-75
2023/11/29 23:05:13;;;;;;;9.75;6.22;;;7.50;1.00;;;;;;4948349;29;20035;-76
2023/11/29 23:07:38;;;;;;;7.53;6.53;;;7.60;1.00;;;;;;4948376;29;20121;-76
2023/11/29 23:10:04;;;;;;;10.18;7.18;;;7.50;1.00;;;;;;4949270;28;20524;-76
2023/11/29 23:12:30;;;;;;;8.57;7.68;;;7.40;1.00;;;;;;4948396;29;20397;-76
2023/11/29 23:14:55;;;;;;;10.55;8.80;;;7.40;1.00;;;;;;4948572;29;20059;-76
2023/11/29 23:17:21;;;;;;;10.02;9.02;;;7.40;1.00;;;;;;4949230;29;20437;-76
2023/11/29 23:19:47;;;;;;;11.35;10.18;;;7.40;1.00;;;;;;4948688;29;20405;-76
2023/11/29 23:22:13;;;;;;;14.25;10.20;;;7.40;1.00;;;;;;4931231;29;20027;-76
2023/11/29 23:24:38;;;;;;;12.70;10.13;;;7.40;1.00;;;;;;4948973;28;20330;-76
2023/11/29 23:27:04;;;;;;;10.07;9.07;;;7.40;2.10;;;;;;4930661;29;20073;-75
2023/11/29 23:29:30;;;;;;;10.68;9.60;;;7.40;1.00;;;;;;4949127;29;20083;-76
2023/11/29 23:31:55;;;;;;;9.63;8.63;;;7.40;1.00;;;;;;4953198;28;20090;-76
2023/11/29 23:34:21;;;;;;;11.60;8.07;;;7.40;1.00;;;;;;4953815;28;20122;-75
2023/11/29 23:36:47;;;;;;;10.23;7.55;;;7.40;1.00;;;;;;4953548;29;20047;-75
2023/11/29 23:39:12;;;;;;;10.63;9.07;;;7.40;1.00;;;;;;4935516;29;20042;-76
2023/11/29 23:41:38;;;;;;;12.35;8.75;;;7.40;1.40;;;;;;4953478;28;20031;-75
2023/11/29 23:44:04;;;;;;;9.93;7.97;;;7.30;9.40;;;;;;4954262;29;20042;-75
2023/11/29 23:46:29;;;;;;;8.45;7.50;;;7.30;7.40;;;;;;4932651;29;20066;-75
2023/11/29 23:48:55;;;;;;;8.25;7.35;;;7.30;7.60;;;;;;4956686;28;20062;-75
2023/11/29 23:51:23;;;;;;;8.10;7.30;;;7.30;1.00;;;;;;4939395;29;20031;-75
2023/11/29 23:53:52;;;;;;;8.40;7.20;;;7.30;1.00;;;;;;4956628;29;20035;-75
2023/11/29 23:56:21;;;;;;;7.90;7.10;;;7.30;2.40;;;;;;4956442;29;20031;-75
2023/11/29 23:58:46;;;;;;;7.03;6.40;;;7.30;3.40;;;;;;4956610;28;20019;-75
